createdAt,value
2022-10-15T00:01:22.562Z,11.27
2022-10-15T00:03:49.712Z,11.30
2022-10-15T00:06:20.917Z,11.33
2022-10-15T00:08:48.157Z,11.39
2022-10-15T00:11:23.354Z,11.42
2022-10-15T00:13:53.830Z,11.42
2022-10-15T00:16:25.467Z,11.43
2022-10-15T00:18:54.806Z,11.45
2022-10-15T00:21:22.142Z,11.47
2022-10-15T00:23:49.776Z,11.50
2022-10-15T00:26:23.213Z,11.51
2022-10-15T00:28:52.829Z,11.53
2022-10-15T00:31:21.007Z,11.55
2022-10-15T00:33:50.433Z,11.56
2022-10-15T00:36:23.848Z,11.58
2022-10-15T00:38:51.678Z,11.59
2022-10-15T00:41:26.118Z,11.62
2022-10-15T00:44:02.765Z,11.61
2022-10-15T00:46:38.156Z,11.65
2022-10-15T00:49:19.406Z,11.66
2022-10-15T00:52:02.967Z,11.67
2022-10-15T00:54:36.078Z,11.71
2022-10-15T00:57:04.263Z,11.73
2022-10-15T00:59:32.556Z,11.74
2022-10-15T01:02:01.515Z,11.75
2022-10-15T01:04:29.644Z,11.76
2022-10-15T01:06:56.556Z,11.77
2022-10-15T01:09:23.668Z,11.79
2022-10-15T01:11:54.432Z,11.77
2022-10-15T01:15:06.370Z,11.77
2022-10-15T01:17:46.652Z,11.79
2022-10-15T01:20:41.002Z,11.81
2022-10-15T01:23:50.393Z,11.84
2022-10-15T01:26:45.229Z,11.85
2022-10-15T01:29:32.463Z,11.82
2022-10-15T01:32:25.908Z,11.82
2022-10-15T01:35:22.554Z,11.81
2022-10-15T01:38:10.930Z,11.83
2022-10-15T01:41:01.208Z,11.82
2022-10-15T01:43:41.695Z,11.83
2022-10-15T01:46:16.925Z,11.84
2022-10-15T01:48:44.346Z,11.80
2022-10-15T01:51:12.764Z,11.80
2022-10-15T01:53:40.805Z,11.78
2022-10-15T01:56:18.022Z,11.76
2022-10-15T01:58:47.572Z,11.70
2022-10-15T02:01:15.217Z,11.65
2022-10-15T02:03:53.120Z,11.64
2022-10-15T02:06:40.633Z,11.59
2022-10-15T02:09:32.189Z,11.57
2022-10-15T02:12:25.460Z,11.52
2022-10-15T02:15:25.504Z,11.50
2022-10-15T02:18:02.531Z,11.44
2022-10-15T02:21:09.636Z,11.41
2022-10-15T02:24:07.840Z,11.34
2022-10-15T02:26:35.685Z,11.30
2022-10-15T02:29:06.494Z,11.29
2022-10-15T02:31:36.711Z,11.27
2022-10-15T02:34:08.191Z,11.28
2022-10-15T02:36:35.847Z,11.27
2022-10-15T02:39:05.604Z,11.28
2022-10-15T02:41:35.913Z,11.26
2022-10-15T02:44:04.006Z,11.28
2022-10-15T02:46:31.091Z,11.27
2022-10-15T02:48:57.988Z,11.28
2022-10-15T02:51:24.912Z,11.28
2022-10-15T02:53:51.822Z,11.29
2022-10-15T02:56:18.859Z,11.28
2022-10-15T02:58:45.819Z,11.28
2022-10-15T03:01:12.751Z,11.26
2022-10-15T03:03:39.677Z,11.24
2022-10-15T03:06:06.883Z,11.23
2022-10-15T03:08:33.993Z,11.21
2022-10-15T03:11:01.916Z,11.17
2022-10-15T03:13:29.472Z,11.14
2022-10-15T03:15:56.817Z,11.09
2022-10-15T03:18:23.721Z,11.05
2022-10-15T03:20:55.272Z,11.02
2022-10-15T03:23:22.851Z,11.00
2022-10-15T03:25:49.988Z,10.98
2022-10-15T03:28:17.133Z,10.96
2022-10-15T03:30:44.424Z,10.92
2022-10-15T03:33:12.659Z,10.87
2022-10-15T03:35:40.056Z,10.86
2022-10-15T03:38:07.971Z,10.84
2022-10-15T03:40:35.619Z,10.82
2022-10-15T03:43:02.506Z,10.79
2022-10-15T03:45:29.413Z,10.77
2022-10-15T03:47:56.288Z,10.74
2022-10-15T03:50:23.149Z,10.70
2022-10-15T03:52:49.999Z,10.68
2022-10-15T03:55:17.014Z,10.64
2022-10-15T03:57:43.924Z,10.61
2022-10-15T04:00:13.603Z,10.57
2022-10-15T04:02:41.244Z,10.55
2022-10-15T04:05:08.288Z,10.51
2022-10-15T04:07:35.664Z,10.46
2022-10-15T04:10:02.872Z,10.40
2022-10-15T04:12:29.773Z,10.37
2022-10-15T04:14:56.636Z,10.35
2022-10-15T04:17:23.497Z,10.32
2022-10-15T04:19:50.355Z,10.32
2022-10-15T04:22:17.531Z,10.32
2022-10-15T04:24:44.460Z,10.32
2022-10-15T04:29:40.044Z,10.38
2022-10-15T04:32:06.970Z,10.40
2022-10-15T04:34:33.868Z,10.40
2022-10-15T04:37:00.754Z,10.44
2022-10-15T04:39:27.599Z,10.43
2022-10-15T04:41:54.465Z,10.46
2022-10-15T04:44:21.379Z,10.48
2022-10-15T04:46:48.323Z,10.49
2022-10-15T04:49:15.457Z,10.51
2022-10-15T04:51:42.396Z,10.53
2022-10-15T04:54:09.552Z,10.57
2022-10-15T04:56:36.444Z,10.59
2022-10-15T04:59:08.505Z,10.63
2022-10-15T05:01:35.504Z,10.65
2022-10-15T05:04:02.420Z,10.67
2022-10-15T05:06:29.298Z,10.69
2022-10-15T05:08:56.223Z,10.71
2022-10-15T05:11:26.580Z,10.75
2022-10-15T05:13:56.363Z,10.76
2022-10-15T05:16:29.368Z,10.79
2022-10-15T05:19:07.980Z,10.82
2022-10-15T05:21:36.177Z,10.86
2022-10-15T05:24:03.960Z,10.87
2022-10-15T05:26:32.060Z,10.88
2022-10-15T05:29:00.410Z,10.92
2022-10-15T05:31:30.561Z,10.95
2022-10-15T05:33:58.065Z,11.01
2022-10-15T05:36:28.704Z,11.05
2022-10-15T05:38:58.994Z,11.15
2022-10-15T05:41:27.152Z,11.15
2022-10-15T05:43:55.939Z,11.30
2022-10-15T05:46:23.964Z,11.36
2022-10-15T05:48:52.490Z,11.41
2022-10-15T05:51:19.980Z,11.49
2022-10-15T05:53:47.100Z,11.57
2022-10-15T05:56:15.543Z,11.65
2022-10-15T05:58:42.594Z,11.65
2022-10-15T06:01:12.557Z,11.74
2022-10-15T06:03:41.339Z,11.76
2022-10-15T06:06:34.332Z,11.80
2022-10-15T06:09:01.791Z,11.83
2022-10-15T06:11:28.940Z,11.86
2022-10-15T06:13:55.926Z,11.90
2022-10-15T06:16:24.085Z,11.93
2022-10-15T06:18:53.367Z,11.95
2022-10-15T06:21:20.648Z,11.96
2022-10-15T06:23:48.366Z,11.98
2022-10-15T06:26:15.276Z,12.03
2022-10-15T06:28:42.688Z,12.05
2022-10-15T06:31:09.704Z,12.07
2022-10-15T06:33:36.653Z,12.06
2022-10-15T06:36:07.094Z,12.10
2022-10-15T06:38:34.340Z,12.11
2022-10-15T06:41:05.719Z,12.13
2022-10-15T06:43:34.784Z,12.13
2022-10-15T06:46:04.462Z,12.17
2022-10-15T06:48:32.588Z,12.19
2022-10-15T06:51:02.160Z,12.21
2022-10-15T06:53:30.711Z,12.20
2022-10-15T06:56:02.899Z,12.23
2022-10-15T06:58:30.553Z,12.26
2022-10-15T07:01:05.900Z,12.27
2022-10-15T07:03:33.100Z,12.28
2022-10-15T07:06:05.501Z,12.31
2022-10-15T07:08:33.200Z,12.35
2022-10-15T07:11:06.854Z,12.39
2022-10-15T07:13:33.883Z,12.39
2022-10-15T07:16:09.014Z,12.40
2022-10-15T07:18:37.035Z,12.44
2022-10-15T07:21:06.747Z,12.46
2022-10-15T07:23:33.976Z,12.52
2022-10-15T07:26:01.836Z,12.52
2022-10-15T07:28:28.857Z,12.55
2022-10-15T07:31:03.863Z,12.58
2022-10-15T07:33:33.332Z,12.58
2022-10-15T07:36:08.131Z,12.63
2022-10-15T07:38:35.844Z,12.64
2022-10-15T07:41:05.080Z,12.66
2022-10-15T07:43:32.115Z,12.68
2022-10-15T07:45:58.995Z,12.69
2022-10-15T07:48:26.025Z,12.77
2022-10-15T07:51:04.050Z,12.78
2022-10-15T07:53:31.472Z,12.82
2022-10-15T07:56:06.199Z,12.86
2022-10-15T07:58:34.630Z,12.90
2022-10-15T08:01:07.428Z,12.90
2022-10-15T08:03:34.876Z,12.92
2022-10-15T08:06:05.088Z,12.96
2022-10-15T08:08:34.104Z,13.02
2022-10-15T08:11:10.759Z,13.04
2022-10-15T08:13:42.197Z,13.11
2022-10-15T08:16:11.008Z,13.11
2022-10-15T08:18:38.680Z,13.14
2022-10-15T08:21:07.940Z,13.23
2022-10-15T08:23:35.961Z,13.24
2022-10-15T08:26:03.192Z,13.31
2022-10-15T08:28:32.697Z,13.31
2022-10-15T08:31:04.600Z,13.36
2022-10-15T08:33:34.917Z,13.31
2022-10-15T08:36:02.538Z,13.38
2022-10-15T08:38:31.769Z,13.41
2022-10-15T08:41:01.022Z,13.43
2022-10-15T08:43:36.604Z,13.52
2022-10-15T08:46:11.786Z,13.57
2022-10-15T08:48:46.428Z,13.64
2022-10-15T08:51:24.692Z,13.77
2022-10-15T08:53:57.692Z,13.88
2022-10-15T08:56:33.082Z,13.90
2022-10-15T08:59:34.641Z,13.96
2022-10-15T09:02:14.553Z,14.00
2022-10-15T09:04:54.352Z,14.10
2022-10-15T09:07:44.978Z,14.20
2022-10-15T09:10:40.058Z,14.20
2022-10-15T09:13:34.320Z,14.25
2022-10-15T09:16:19.108Z,14.31
2022-10-15T09:18:52.246Z,14.27
2022-10-15T09:21:22.474Z,14.24
2022-10-15T09:23:49.610Z,14.38
2022-10-15T09:26:34.269Z,14.35
2022-10-15T09:29:39.005Z,14.20
2022-10-15T09:32:36.755Z,14.34
2022-10-15T09:35:24.723Z,14.38
2022-10-15T09:38:14.146Z,14.49
2022-10-15T09:40:49.769Z,14.46
2022-10-15T09:43:30.634Z,14.50
2022-10-15T09:45:58.184Z,14.47
2022-10-15T09:48:27.175Z,14.56
2022-10-15T09:51:05.186Z,14.64
2022-10-15T09:54:08.043Z,14.62
2022-10-15T09:56:50.981Z,14.68
2022-10-15T09:59:20.783Z,14.57
2022-10-15T10:02:03.591Z,14.57
2022-10-15T10:04:34.271Z,14.56
2022-10-15T10:07:07.474Z,14.51
2022-10-15T10:09:56.152Z,14.43
2022-10-15T10:12:49.820Z,14.43
2022-10-15T10:15:35.740Z,14.54
2022-10-15T10:18:06.800Z,14.49
2022-10-15T10:20:35.087Z,14.58
2022-10-15T10:23:24.404Z,14.60
2022-10-15T10:25:51.752Z,14.61
2022-10-15T10:28:32.522Z,14.62
2022-10-15T10:31:04.665Z,14.68
2022-10-15T10:33:48.668Z,14.66
2022-10-15T10:36:34.211Z,14.59
2022-10-15T10:39:13.936Z,14.60
2022-10-15T10:41:54.630Z,14.65
2022-10-15T10:44:37.381Z,14.59
2022-10-15T10:47:21.850Z,14.64
2022-10-15T10:49:59.181Z,14.67
2022-10-15T10:52:37.646Z,14.68
2022-10-15T10:55:20.491Z,14.67
2022-10-15T10:58:01.935Z,14.69
2022-10-15T11:00:44.973Z,14.70
2022-10-15T11:03:36.043Z,14.65
2022-10-15T11:06:47.030Z,14.62
2022-10-15T11:09:52.342Z,14.59
2022-10-15T11:12:38.694Z,14.58
2022-10-15T11:15:27.537Z,14.60
2022-10-15T11:18:14.695Z,14.63
2022-10-15T11:21:03.078Z,14.59
2022-10-15T11:24:01.474Z,14.58
2022-10-15T11:27:10.564Z,14.62
2022-10-15T11:29:56.384Z,14.67
2022-10-15T11:33:08.536Z,14.67
2022-10-15T11:35:53.951Z,14.73
2022-10-15T11:39:15.786Z,14.67
2022-10-15T11:42:10.252Z,14.71
2022-10-15T11:45:04.151Z,14.77
2022-10-15T11:48:02.620Z,14.75
2022-10-15T11:50:46.694Z,14.78
2022-10-15T11:53:38.766Z,14.80
2022-10-15T11:56:20.817Z,14.82
2022-10-15T11:59:12.615Z,14.86
2022-10-15T12:01:43.979Z,14.84
2022-10-15T12:04:28.906Z,14.90
2022-10-15T12:07:04.038Z,14.87
2022-10-15T12:09:38.157Z,14.94
2022-10-15T12:12:28.477Z,14.95
2022-10-15T12:15:28.205Z,15.03
2022-10-15T12:18:02.783Z,15.10
2022-10-15T12:20:30.632Z,15.09
2022-10-15T12:23:03.444Z,15.16
2022-10-15T12:25:36.277Z,15.18
2022-10-15T12:28:09.018Z,15.23
2022-10-15T12:30:37.605Z,15.29
2022-10-15T12:33:25.967Z,15.34
2022-10-15T12:36:00.511Z,15.30
2022-10-15T12:38:32.308Z,15.31
2022-10-15T12:41:09.566Z,15.34
2022-10-15T12:43:53.848Z,15.36
2022-10-15T12:46:20.774Z,15.43
2022-10-15T12:48:47.946Z,15.48
2022-10-15T12:51:24.105Z,15.46
2022-10-15T12:53:52.999Z,15.45
2022-10-15T12:56:26.308Z,15.47
2022-10-15T12:58:55.992Z,15.53
2022-10-15T13:01:22.889Z,15.58
2022-10-15T13:03:50.225Z,15.63
2022-10-15T13:06:30.514Z,15.61
2022-10-15T13:09:16.903Z,15.68
2022-10-15T13:11:56.837Z,15.67
2022-10-15T13:14:38.579Z,15.80
2022-10-15T13:17:16.470Z,15.87
2022-10-15T13:19:57.992Z,15.84
2022-10-15T13:22:28.907Z,15.86
2022-10-15T13:24:56.698Z,15.90
2022-10-15T13:27:32.081Z,15.85
2022-10-15T13:30:14.533Z,15.90
2022-10-15T13:32:50.681Z,15.80
2022-10-15T13:35:34.539Z,15.84
2022-10-15T13:38:05.179Z,15.84
2022-10-15T13:40:32.677Z,15.80
2022-10-15T13:43:06.664Z,15.85
2022-10-15T13:45:34.954Z,15.88
2022-10-15T13:48:01.995Z,15.96
2022-10-15T13:50:40.162Z,16.02
2022-10-15T13:53:29.087Z,15.98
2022-10-15T13:56:00.131Z,15.95
2022-10-15T13:58:36.448Z,15.98
2022-10-15T14:01:10.467Z,15.95
2022-10-15T14:03:39.276Z,15.97
2022-10-15T14:06:28.220Z,15.99
2022-10-15T14:09:20.213Z,16.02
2022-10-15T14:11:47.300Z,16.04
2022-10-15T14:14:41.138Z,16.07
2022-10-15T14:17:17.252Z,16.10
2022-10-15T14:20:22.139Z,16.07
2022-10-15T14:22:49.644Z,16.10
2022-10-15T14:25:25.054Z,16.06
2022-10-15T14:27:52.583Z,16.02
2022-10-15T14:30:33.870Z,15.95
2022-10-15T14:33:00.781Z,15.98
2022-10-15T14:35:36.064Z,15.98
2022-10-15T14:38:16.876Z,15.95
2022-10-15T14:41:09.188Z,15.87
2022-10-15T14:43:37.823Z,15.82
2022-10-15T14:46:16.001Z,15.77
2022-10-15T14:48:44.646Z,15.72
2022-10-15T14:51:29.458Z,15.70
2022-10-15T14:53:56.612Z,15.66
2022-10-15T14:56:32.117Z,15.60
2022-10-15T14:59:00.999Z,15.49
2022-10-15T15:01:29.494Z,15.52
2022-10-15T15:03:57.219Z,15.44
2022-10-15T15:06:24.450Z,15.44
2022-10-15T15:08:51.522Z,15.44
2022-10-15T15:11:22.923Z,15.41
2022-10-15T15:13:51.366Z,15.40
2022-10-15T15:16:20.053Z,15.40
2022-10-15T15:18:48.552Z,15.19
2022-10-15T15:21:20.957Z,15.16
2022-10-15T15:23:49.026Z,15.11
2022-10-15T15:26:15.953Z,15.02
2022-10-15T15:28:42.928Z,14.96
2022-10-15T15:31:17.451Z,14.93
2022-10-15T15:33:44.400Z,14.89
2022-10-15T15:36:23.482Z,14.85
2022-10-15T15:38:51.359Z,14.80
2022-10-15T15:41:22.180Z,14.77
2022-10-15T15:43:49.771Z,14.78
2022-10-15T15:46:17.288Z,14.69
2022-10-15T15:48:44.397Z,14.67
2022-10-15T15:51:24.728Z,14.61
2022-10-15T15:53:52.105Z,14.57
2022-10-15T15:56:19.997Z,14.54
2022-10-15T15:58:50.096Z,14.47
2022-10-15T16:01:19.112Z,14.40
2022-10-15T16:03:46.224Z,14.34
2022-10-15T16:06:13.717Z,14.33
2022-10-15T16:08:40.672Z,14.23
2022-10-15T16:11:07.793Z,14.23
2022-10-15T16:13:34.771Z,14.16
2022-10-15T16:16:01.653Z,14.13
2022-10-15T16:18:28.547Z,14.06
2022-10-15T16:20:55.666Z,14.03
2022-10-15T16:23:22.627Z,14.02
2022-10-15T16:25:49.569Z,13.93
2022-10-15T16:28:16.515Z,13.93
2022-10-15T16:30:43.391Z,13.88
2022-10-15T16:33:10.383Z,13.87
2022-10-15T16:35:37.280Z,13.79
2022-10-15T16:38:04.231Z,13.77
2022-10-15T16:40:31.073Z,13.72
2022-10-15T16:42:58.063Z,13.70
2022-10-15T16:45:24.963Z,13.67
2022-10-15T16:47:51.907Z,13.60
2022-10-15T16:50:18.956Z,13.55
2022-10-15T16:52:45.827Z,13.55
2022-10-15T16:55:12.808Z,13.51
2022-10-15T16:57:39.670Z,13.46
2022-10-15T17:00:07.503Z,13.39
2022-10-15T17:02:34.392Z,13.36
2022-10-15T17:05:01.336Z,13.34
2022-10-15T17:07:28.520Z,13.29
2022-10-15T17:09:55.573Z,13.24
2022-10-15T17:12:22.797Z,13.21
2022-10-15T17:14:51.467Z,13.20
2022-10-15T17:17:18.919Z,13.15
2022-10-15T17:19:45.825Z,13.13
2022-10-15T17:22:12.777Z,13.10
2022-10-15T17:24:39.668Z,13.09
2022-10-15T17:27:06.574Z,13.07
2022-10-15T17:29:33.971Z,13.03
2022-10-15T17:32:02.040Z,12.99
2022-10-15T17:34:29.063Z,12.93
2022-10-15T17:36:56.310Z,12.92
2022-10-15T17:39:24.077Z,12.89
2022-10-15T17:41:52.268Z,12.89
2022-10-15T17:44:19.795Z,12.88
2022-10-15T17:46:46.762Z,12.83
2022-10-15T17:49:18.063Z,12.80
2022-10-15T17:51:46.232Z,12.80
2022-10-15T17:54:13.300Z,12.78
2022-10-15T17:56:40.313Z,12.75
2022-10-15T17:59:11.552Z,12.70
2022-10-15T18:01:58.732Z,12.66
2022-10-15T18:04:28.209Z,12.63
2022-10-15T18:06:55.108Z,12.57
2022-10-15T18:09:22.036Z,12.56
2022-10-15T18:11:49.047Z,12.56
2022-10-15T18:14:16.246Z,12.55
2022-10-15T18:16:43.855Z,12.47
2022-10-15T18:19:10.909Z,12.47
2022-10-15T18:21:37.952Z,12.44
2022-10-15T18:24:04.976Z,12.47
2022-10-15T18:26:32.222Z,12.45
2022-10-15T18:28:59.251Z,12.43
2022-10-15T18:31:26.416Z,12.42
2022-10-15T18:33:56.148Z,12.42
2022-10-15T18:36:27.896Z,12.42
2022-10-15T18:38:55.755Z,12.42
2022-10-15T18:41:33.438Z,12.44
2022-10-15T18:44:04.092Z,12.43
2022-10-15T18:46:33.266Z,12.46
2022-10-15T18:49:01.875Z,12.45
2022-10-15T18:51:29.544Z,12.43
2022-10-15T18:53:56.429Z,12.45
2022-10-15T18:56:23.346Z,12.45
2022-10-15T18:58:52.413Z,12.46
2022-10-15T19:01:35.777Z,12.45
2022-10-15T19:04:12.600Z,12.44
2022-10-15T19:06:44.264Z,12.44
2022-10-15T19:09:15.295Z,12.41
2022-10-15T19:11:45.521Z,12.43
2022-10-15T19:14:15.264Z,12.41
2022-10-15T19:16:43.368Z,12.42
2022-10-15T19:19:16.029Z,12.44
2022-10-15T19:21:44.164Z,12.42
2022-10-15T19:24:11.494Z,12.42
2022-10-15T19:26:38.385Z,12.42
2022-10-15T19:29:05.920Z,12.45
2022-10-15T19:31:39.740Z,12.45
2022-10-15T19:34:07.110Z,12.45
2022-10-15T19:36:41.128Z,12.47
2022-10-15T19:39:16.884Z,12.46
2022-10-15T19:41:45.317Z,12.50
2022-10-15T19:44:16.704Z,12.50
2022-10-15T19:46:45.945Z,12.54
2022-10-15T19:49:14.364Z,12.55
2022-10-15T19:51:41.637Z,12.56
2022-10-15T19:54:09.201Z,12.60
2022-10-15T19:56:36.169Z,12.65
2022-10-15T19:59:05.435Z,12.64
2022-10-15T20:01:33.048Z,12.65
2022-10-15T20:04:05.779Z,12.65
2022-10-15T20:06:36.373Z,12.67
2022-10-15T20:09:04.551Z,12.69
2022-10-15T20:11:31.825Z,12.69
2022-10-15T20:14:00.101Z,12.71
2022-10-15T20:16:28.720Z,12.76
2022-10-15T20:18:58.573Z,12.72
2022-10-15T20:21:25.457Z,12.74
2022-10-15T20:23:52.324Z,12.74
2022-10-15T20:26:19.210Z,12.74
2022-10-15T20:28:46.983Z,12.77
2022-10-15T20:31:21.247Z,12.74
2022-10-15T20:33:48.383Z,12.72
2022-10-15T20:36:22.673Z,12.71
2022-10-15T20:38:51.306Z,12.70
2022-10-15T20:41:19.221Z,12.70
2022-10-15T20:43:49.612Z,12.69
2022-10-15T20:46:24.215Z,12.68
2022-10-15T20:48:51.387Z,12.64
2022-10-15T20:51:21.398Z,12.66
2022-10-15T20:53:52.542Z,12.68
2022-10-15T20:56:19.472Z,12.64
2022-10-15T20:58:47.309Z,12.65
2022-10-15T21:01:14.317Z,12.67
2022-10-15T21:03:41.324Z,12.70
2022-10-15T21:06:08.208Z,12.69
2022-10-15T21:08:36.148Z,12.68
2022-10-15T21:11:08.138Z,12.68
2022-10-15T21:13:35.284Z,12.71
2022-10-15T21:16:05.723Z,12.74
2022-10-15T21:18:34.746Z,12.74
2022-10-15T21:21:05.188Z,12.73
2022-10-15T21:23:33.116Z,12.75
2022-10-15T21:26:07.266Z,12.76
2022-10-15T21:28:35.504Z,12.73
2022-10-15T21:31:11.906Z,12.75
2022-10-15T21:33:39.134Z,12.74
2022-10-15T21:36:25.977Z,12.73
2022-10-15T21:38:58.235Z,12.73
2022-10-15T21:41:28.355Z,12.73
2022-10-15T21:43:55.373Z,12.74
2022-10-15T21:46:22.995Z,12.74
2022-10-15T21:48:51.468Z,12.74
2022-10-15T21:51:28.485Z,12.75
2022-10-15T21:53:57.576Z,12.75
2022-10-15T21:56:25.939Z,12.76
2022-10-15T21:58:54.408Z,12.74
2022-10-15T22:01:31.170Z,12.74
2022-10-15T22:04:04.983Z,12.72
2022-10-15T22:06:33.096Z,12.72
2022-10-15T22:09:01.897Z,12.72
2022-10-15T22:11:32.684Z,12.72
2022-10-15T22:14:06.392Z,12.73
2022-10-15T22:16:38.536Z,12.72
2022-10-15T22:19:06.378Z,12.75
2022-10-15T22:21:36.339Z,12.71
2022-10-15T22:24:07.943Z,12.71
2022-10-15T22:26:39.634Z,12.72
2022-10-15T22:29:09.138Z,12.74
2022-10-15T22:31:36.177Z,12.74
2022-10-15T22:34:03.095Z,12.74
2022-10-15T22:36:31.428Z,12.74
2022-10-15T22:39:02.513Z,12.75
2022-10-15T22:41:40.611Z,12.74
2022-10-15T22:44:16.484Z,12.72
2022-10-15T22:46:48.965Z,12.75
2022-10-15T22:49:21.569Z,12.72
2022-10-15T22:51:50.241Z,12.65
2022-10-15T22:54:20.324Z,12.65
2022-10-15T22:56:47.548Z,12.61
2022-10-15T22:59:15.577Z,12.57
2022-10-15T23:01:43.172Z,12.59
2022-10-15T23:04:14.019Z,12.56
2022-10-15T23:06:41.501Z,12.52
2022-10-15T23:09:10.769Z,12.45
2022-10-15T23:11:40.475Z,12.43
2022-10-15T23:14:11.698Z,12.43
2022-10-15T23:16:42.307Z,12.40
2022-10-15T23:19:17.594Z,12.32
2022-10-15T23:21:55.864Z,12.30
2022-10-15T23:24:26.137Z,12.28
2022-10-15T23:26:53.453Z,12.24
2022-10-15T23:29:24.019Z,12.19
2022-10-15T23:31:51.135Z,12.17
2022-10-15T23:34:24.648Z,12.14
2022-10-15T23:36:52.907Z,12.13
2022-10-15T23:39:26.494Z,12.06
2022-10-15T23:41:54.508Z,12.06
2022-10-15T23:44:25.257Z,12.03
2022-10-15T23:46:52.368Z,12.00
2022-10-15T23:49:19.347Z,11.99
2022-10-15T23:51:46.230Z,11.98
2022-10-15T23:54:17.645Z,11.97
2022-10-15T23:56:46.588Z,11.95
2022-10-15T23:59:14.006Z,11.95
